sensor_id;sensor_type;location;lat;lon;timestamp;pressure;altitude;pressure_sealevel;temperature;humidity
63535;BME280;55128;50.230;18.944;2023-05-16T00:02:58;97912.66;;;10.32;83.74
63535;BME280;55128;50.230;18.944;2023-05-16T00:07:59;97914.34;;;10.17;83.52
63535;BME280;55128;50.230;18.944;2023-05-16T00:12:59;97910.53;;;10.07;84.40
63535;BME280;55128;50.230;18.944;2023-05-16T00:18:00;97913.34;;;10.20;84.52
63535;BME280;55128;50.230;18.944;2023-05-16T00:23:01;97904.09;;;10.27;84.80
63535;BME280;55128;50.230;18.944;2023-05-16T00:28:01;97915.31;;;10.32;84.37
63535;BME280;55128;50.230;18.944;2023-05-16T00:33:02;97908.88;;;10.20;84.05
63535;BME280;55128;50.230;18.944;2023-05-16T00:38:02;97916.31;;;9.98;85.34
63535;BME280;55128;50.230;18.944;2023-05-16T00:43:03;97914.22;;;10.04;84.99
63535;BME280;55128;50.230;18.944;2023-05-16T00:48:03;97913.78;;;10.12;85.33
63535;BME280;55128;50.230;18.944;2023-05-16T00:53:04;97901.53;;;10.09;85.88
63535;BME280;55128;50.230;18.944;2023-05-16T00:58:05;97908.41;;;10.14;84.74
63535;BME280;55128;50.230;18.944;2023-05-16T01:03:05;97910.19;;;9.97;84.49
63535;BME280;55128;50.230;18.944;2023-05-16T01:08:06;97916.41;;;9.96;84.02
63535;BME280;55128;50.230;18.944;2023-05-16T01:13:11;97897.59;;;9.85;84.40
63535;BME280;55128;50.230;18.944;2023-05-16T01:18:36;97897.78;;;9.82;85.10
63535;BME280;55128;50.230;18.944;2023-05-16T01:24:03;97901.00;;;9.71;85.13
63535;BME280;55128;50.230;18.944;2023-05-16T01:29:06;97893.53;;;9.62;85.72
63535;BME280;55128;50.230;18.944;2023-05-16T01:34:07;97899.59;;;9.64;85.39
63535;BME280;55128;50.230;18.944;2023-05-16T01:39:14;97901.84;;;9.71;85.30
63535;BME280;55128;50.230;18.944;2023-05-16T01:44:24;97903.72;;;9.53;85.58
63535;BME280;55128;50.230;18.944;2023-05-16T01:49:33;97901.66;;;9.59;85.80
63535;BME280;55128;50.230;18.944;2023-05-16T01:54:37;97897.53;;;9.53;86.09
63535;BME280;55128;50.230;18.944;2023-05-16T01:59:39;97896.81;;;9.33;86.59
63535;BME280;55128;50.230;18.944;2023-05-16T02:04:41;97888.88;;;9.33;86.66
63535;BME280;55128;50.230;18.944;2023-05-16T02:09:42;97902.81;;;9.37;87.19
63535;BME280;55128;50.230;18.944;2023-05-16T02:14:42;97902.22;;;9.14;86.91
63535;BME280;55128;50.230;18.944;2023-05-16T02:19:42;97904.88;;;9.14;87.12
63535;BME280;55128;50.230;18.944;2023-05-16T02:24:43;97908.50;;;9.12;87.13
63535;BME280;55128;50.230;18.944;2023-05-16T02:29:43;97903.97;;;9.14;86.60
63535;BME280;55128;50.230;18.944;2023-05-16T02:34:44;97913.69;;;8.98;86.75
63535;BME280;55128;50.230;18.944;2023-05-16T02:39:44;97912.44;;;9.05;86.51
63535;BME280;55128;50.230;18.944;2023-05-16T02:44:44;97915.22;;;9.02;85.88
63535;BME280;55128;50.230;18.944;2023-05-16T02:49:45;97919.38;;;8.90;86.04
63535;BME280;55128;50.230;18.944;2023-05-16T02:54:46;97909.25;;;8.81;85.86
63535;BME280;55128;50.230;18.944;2023-05-16T02:59:46;97910.09;;;8.81;86.16
63535;BME280;55128;50.230;18.944;2023-05-16T03:04:46;97914.84;;;8.92;86.19
63535;BME280;55128;50.230;18.944;2023-05-16T03:09:47;97923.50;;;8.95;85.32
63535;BME280;55128;50.230;18.944;2023-05-16T03:14:47;97923.94;;;8.86;86.64
63535;BME280;55128;50.230;18.944;2023-05-16T03:19:47;97923.94;;;9.04;86.57
63535;BME280;55128;50.230;18.944;2023-05-16T03:24:48;97929.09;;;9.07;87.00
63535;BME280;55128;50.230;18.944;2023-05-16T03:29:48;97932.63;;;9.23;86.55
63535;BME280;55128;50.230;18.944;2023-05-16T03:34:48;97944.72;;;9.29;86.44
63535;BME280;55128;50.230;18.944;2023-05-16T03:39:49;97949.09;;;9.30;86.55
63535;BME280;55128;50.230;18.944;2023-05-16T03:44:50;97945.56;;;9.47;86.46
63535;BME280;55128;50.230;18.944;2023-05-16T03:49:50;97946.94;;;9.54;86.41
63535;BME280;55128;50.230;18.944;2023-05-16T03:54:52;97946.19;;;9.68;86.59
63535;BME280;55128;50.230;18.944;2023-05-16T03:59:52;97957.28;;;9.92;86.42
63535;BME280;55128;50.230;18.944;2023-05-16T04:04:52;97950.97;;;10.10;86.12
63535;BME280;55128;50.230;18.944;2023-05-16T04:09:53;97956.28;;;10.26;85.74
63535;BME280;55128;50.230;18.944;2023-05-16T04:14:55;97947.84;;;10.36;86.03
63535;BME280;55128;50.230;18.944;2023-05-16T04:19:55;97955.47;;;10.58;85.62
63535;BME280;55128;50.230;18.944;2023-05-16T04:24:56;97964.41;;;10.87;85.59
63535;BME280;55128;50.230;18.944;2023-05-16T04:29:56;97980.16;;;11.20;85.31
63535;BME280;55128;50.230;18.944;2023-05-16T04:34:58;97988.44;;;11.75;85.27
63535;BME280;55128;50.230;18.944;2023-05-16T04:39:59;97977.13;;;12.43;84.13
63535;BME280;55128;50.230;18.944;2023-05-16T04:44:59;97989.19;;;14.46;77.55
63535;BME280;55128;50.230;18.944;2023-05-16T04:49:59;97997.91;;;16.15;73.68
63535;BME280;55128;50.230;18.944;2023-05-16T04:55:00;98014.19;;;17.56;65.25
63535;BME280;55128;50.230;18.944;2023-05-16T05:00:01;98014.31;;;18.48;59.36
63535;BME280;55128;50.230;18.944;2023-05-16T05:05:01;98016.78;;;19.31;58.74
63535;BME280;55128;50.230;18.944;2023-05-16T05:10:02;98031.38;;;20.81;54.19
63535;BME280;55128;50.230;18.944;2023-05-16T05:15:04;98036.44;;;21.58;50.93
63535;BME280;55128;50.230;18.944;2023-05-16T05:20:05;98035.34;;;22.57;47.25
63535;BME280;55128;50.230;18.944;2023-05-16T05:25:08;98038.75;;;21.34;47.49
63535;BME280;55128;50.230;18.944;2023-05-16T05:30:08;98045.09;;;22.49;46.86
63535;BME280;55128;50.230;18.944;2023-05-16T05:35:09;98026.88;;;22.60;44.94
63535;BME280;55128;50.230;18.944;2023-05-16T05:40:10;98028.53;;;23.38;42.93
63535;BME280;55128;50.230;18.944;2023-05-16T05:45:10;98035.50;;;23.57;41.72
63535;BME280;55128;50.230;18.944;2023-05-16T05:50:10;98035.13;;;24.98;39.05
63535;BME280;55128;50.230;18.944;2023-05-16T05:55:11;98044.53;;;25.27;37.35
63535;BME280;55128;50.230;18.944;2023-05-16T06:00:12;98050.63;;;25.29;37.09
63535;BME280;55128;50.230;18.944;2023-05-16T06:05:13;98054.66;;;25.64;36.35
63535;BME280;55128;50.230;18.944;2023-05-16T06:10:13;98062.94;;;26.17;34.84
63535;BME280;55128;50.230;18.944;2023-05-16T06:15:14;98061.47;;;26.06;35.59
63535;BME280;55128;50.230;18.944;2023-05-16T06:20:14;98060.03;;;26.18;35.71
63535;BME280;55128;50.230;18.944;2023-05-16T06:25:14;98059.38;;;27.50;32.60
63535;BME280;55128;50.230;18.944;2023-05-16T06:30:15;98065.81;;;26.98;32.89
63535;BME280;55128;50.230;18.944;2023-05-16T06:35:15;98066.19;;;27.61;32.34
63535;BME280;55128;50.230;18.944;2023-05-16T06:40:28;98071.50;;;28.34;31.31
63535;BME280;55128;50.230;18.944;2023-05-16T06:45:28;98060.75;;;30.19;28.33
63535;BME280;55128;50.230;18.944;2023-05-16T06:50:29;98062.13;;;29.61;28.86
63535;BME280;55128;50.230;18.944;2023-05-16T06:55:29;98062.13;;;31.08;27.06
63535;BME280;55128;50.230;18.944;2023-05-16T07:00:29;98058.97;;;31.63;25.58
63535;BME280;55128;50.230;18.944;2023-05-16T07:05:30;98068.72;;;30.74;26.67
63535;BME280;55128;50.230;18.944;2023-05-16T07:10:30;98067.25;;;30.85;27.72
63535;BME280;55128;50.230;18.944;2023-05-16T07:15:30;98062.03;;;30.50;26.78
63535;BME280;55128;50.230;18.944;2023-05-16T07:20:31;98065.28;;;29.10;28.59
63535;BME280;55128;50.230;18.944;2023-05-16T07:25:31;98074.38;;;28.76;29.70
63535;BME280;55128;50.230;18.944;2023-05-16T07:30:32;98070.28;;;28.15;31.30
63535;BME280;55128;50.230;18.944;2023-05-16T07:35:32;98089.31;;;28.80;29.71
63535;BME280;55128;50.230;18.944;2023-05-16T07:40:32;98087.03;;;28.34;30.16
63535;BME280;55128;50.230;18.944;2023-05-16T07:45:33;98101.34;;;28.57;30.13
63535;BME280;55128;50.230;18.944;2023-05-16T07:50:33;98110.63;;;27.91;30.75
63535;BME280;55128;50.230;18.944;2023-05-16T07:55:34;98122.81;;;31.25;26.10
63535;BME280;55128;50.230;18.944;2023-05-16T08:00:34;98137.03;;;30.29;27.34
63535;BME280;55128;50.230;18.944;2023-05-16T08:05:35;98137.75;;;28.93;29.49
63535;BME280;55128;50.230;18.944;2023-05-16T08:10:35;98144.09;;;29.90;28.07
63535;BME280;55128;50.230;18.944;2023-05-16T08:15:35;98135.66;;;31.90;25.24
63535;BME280;55128;50.230;18.944;2023-05-16T08:20:36;98144.25;;;33.14;24.30
63535;BME280;55128;50.230;18.944;2023-05-16T08:25:36;98147.34;;;33.92;23.81
63535;BME280;55128;50.230;18.944;2023-05-16T08:30:36;98147.16;;;34.05;22.09
63535;BME280;55128;50.230;18.944;2023-05-16T08:35:41;98144.28;;;34.30;22.29
63535;BME280;55128;50.230;18.944;2023-05-16T08:40:42;98146.00;;;34.13;22.73
63535;BME280;55128;50.230;18.944;2023-05-16T08:45:42;98149.03;;;32.18;25.68
63535;BME280;55128;50.230;18.944;2023-05-16T08:50:43;98120.50;;;31.81;23.74
63535;BME280;55128;50.230;18.944;2023-05-16T08:55:45;98130.53;;;32.64;23.18
63535;BME280;55128;50.230;18.944;2023-05-16T09:00:47;98117.00;;;30.21;25.75
63535;BME280;55128;50.230;18.944;2023-05-16T09:05:47;98127.53;;;31.11;24.45
63535;BME280;55128;50.230;18.944;2023-05-16T09:10:49;98129.00;;;30.14;26.39
63535;BME280;55128;50.230;18.944;2023-05-16T09:16:12;98134.00;;;33.21;22.66
63535;BME280;55128;50.230;18.944;2023-05-16T09:21:13;98126.69;;;32.08;23.17
63535;BME280;55128;50.230;18.944;2023-05-16T09:26:14;98127.78;;;32.00;23.48
63535;BME280;55128;50.230;18.944;2023-05-16T09:31:22;98127.38;;;32.85;22.86
63535;BME280;55128;50.230;18.944;2023-05-16T09:36:27;98128.88;;;31.54;23.68
63535;BME280;55128;50.230;18.944;2023-05-16T09:41:32;98124.56;;;31.06;24.80
63535;BME280;55128;50.230;18.944;2023-05-16T09:46:34;98125.91;;;30.50;24.00
63535;BME280;55128;50.230;18.944;2023-05-16T09:51:37;98123.94;;;28.73;26.27
63535;BME280;55128;50.230;18.944;2023-05-16T09:56:50;98125.16;;;27.62;28.14
63535;BME280;55128;50.230;18.944;2023-05-16T10:01:52;98120.22;;;27.06;28.71
63535;BME280;55128;50.230;18.944;2023-05-16T10:06:55;98108.97;;;26.42;29.28
63535;BME280;55128;50.230;18.944;2023-05-16T10:11:57;98104.63;;;27.30;28.80
63535;BME280;55128;50.230;18.944;2023-05-16T10:17:13;98105.00;;;27.78;28.99
63535;BME280;55128;50.230;18.944;2023-05-16T10:27:31;98106.59;;;26.91;29.99
63535;BME280;55128;50.230;18.944;2023-05-16T10:32:34;98098.50;;;25.84;31.05
63535;BME280;55128;50.230;18.944;2023-05-16T10:37:35;98093.06;;;25.92;29.51
63535;BME280;55128;50.230;18.944;2023-05-16T10:42:37;98106.09;;;25.66;28.94
63535;BME280;55128;50.230;18.944;2023-05-16T10:47:37;98095.94;;;25.36;30.02
63535;BME280;55128;50.230;18.944;2023-05-16T10:52:37;98106.53;;;25.23;30.74
63535;BME280;55128;50.230;18.944;2023-05-16T10:57:38;98093.53;;;25.02;29.35
63535;BME280;55128;50.230;18.944;2023-05-16T11:02:41;98093.63;;;25.25;32.65
63535;BME280;55128;50.230;18.944;2023-05-16T11:07:42;98084.75;;;25.63;32.29
63535;BME280;55128;50.230;18.944;2023-05-16T11:12:48;98080.25;;;25.07;29.57
63535;BME280;55128;50.230;18.944;2023-05-16T11:17:49;98078.81;;;24.80;30.17
63535;BME280;55128;50.230;18.944;2023-05-16T11:22:49;98073.13;;;24.42;31.83
63535;BME280;55128;50.230;18.944;2023-05-16T11:27:51;98057.16;;;25.03;29.23
63535;BME280;55128;50.230;18.944;2023-05-16T11:32:51;98070.53;;;24.73;30.07
63535;BME280;55128;50.230;18.944;2023-05-16T11:37:51;98060.22;;;25.00;31.63
63535;BME280;55128;50.230;18.944;2023-05-16T11:42:52;98056.63;;;24.68;31.79
63535;BME280;55128;50.230;18.944;2023-05-16T11:47:52;98068.22;;;24.54;29.88
63535;BME280;55128;50.230;18.944;2023-05-16T11:52:53;98071.09;;;23.78;31.83
63535;BME280;55128;50.230;18.944;2023-05-16T11:57:57;98062.91;;;23.45;33.83
63535;BME280;55128;50.230;18.944;2023-05-16T12:03:02;98066.63;;;23.36;34.31
63535;BME280;55128;50.230;18.944;2023-05-16T12:08:09;98060.34;;;22.93;31.34
63535;BME280;55128;50.230;18.944;2023-05-16T12:13:09;98073.91;;;23.36;30.39
63535;BME280;55128;50.230;18.944;2023-05-16T12:18:10;98070.41;;;23.68;29.87
63535;BME280;55128;50.230;18.944;2023-05-16T12:23:11;98061.75;;;23.56;31.27
63535;BME280;55128;50.230;18.944;2023-05-16T12:28:13;98056.81;;;23.43;31.57
63535;BME280;55128;50.230;18.944;2023-05-16T12:33:14;98054.75;;;22.86;33.24
63535;BME280;55128;50.230;18.944;2023-05-16T12:38:15;98052.00;;;22.78;33.83
63535;BME280;55128;50.230;18.944;2023-05-16T12:43:19;98035.41;;;22.73;34.37
63535;BME280;55128;50.230;18.944;2023-05-16T12:48:20;98033.03;;;22.70;35.12
63535;BME280;55128;50.230;18.944;2023-05-16T12:53:20;98029.59;;;22.07;36.18
63535;BME280;55128;50.230;18.944;2023-05-16T12:58:21;98015.28;;;22.15;36.53
63535;BME280;55128;50.230;18.944;2023-05-16T13:03:21;98024.84;;;21.83;38.19
63535;BME280;55128;50.230;18.944;2023-05-16T13:08:22;98022.34;;;21.90;37.98
63535;BME280;55128;50.230;18.944;2023-05-16T13:13:22;98018.81;;;21.89;38.49
63535;BME280;55128;50.230;18.944;2023-05-16T13:18:23;98021.22;;;21.74;39.02
63535;BME280;55128;50.230;18.944;2023-05-16T13:23:23;98015.72;;;21.84;38.49
63535;BME280;55128;50.230;18.944;2023-05-16T13:28:24;98006.13;;;21.46;39.49
63535;BME280;55128;50.230;18.944;2023-05-16T13:33:25;98000.72;;;21.46;39.20
63535;BME280;55128;50.230;18.944;2023-05-16T13:38:25;97994.06;;;21.40;39.31
63535;BME280;55128;50.230;18.944;2023-05-16T13:43:26;98000.03;;;20.80;41.60
63535;BME280;55128;50.230;18.944;2023-05-16T13:48:26;98001.56;;;20.45;44.78
63535;BME280;55128;50.230;18.944;2023-05-16T13:53:26;97996.09;;;20.37;45.36
63535;BME280;55128;50.230;18.944;2023-05-16T13:58:27;97986.34;;;20.26;50.26
63535;BME280;55128;50.230;18.944;2023-05-16T14:03:27;98001.31;;;20.01;49.26
63535;BME280;55128;50.230;18.944;2023-05-16T14:08:28;98005.16;;;19.89;50.62
63535;BME280;55128;50.230;18.944;2023-05-16T14:13:28;98012.56;;;19.77;56.42
63535;BME280;55128;50.230;18.944;2023-05-16T14:18:28;98021.63;;;19.47;61.70
63535;BME280;55128;50.230;18.944;2023-05-16T14:23:29;98022.16;;;19.21;64.30
63535;BME280;55128;50.230;18.944;2023-05-16T14:28:29;98023.44;;;19.17;64.79
63535;BME280;55128;50.230;18.944;2023-05-16T14:33:31;98015.91;;;18.60;65.99
63535;BME280;55128;50.230;18.944;2023-05-16T14:38:32;98028.78;;;18.57;68.29
63535;BME280;55128;50.230;18.944;2023-05-16T14:43:32;98028.56;;;18.79;66.81
63535;BME280;55128;50.230;18.944;2023-05-16T14:48:33;98035.25;;;18.54;67.84
63535;BME280;55128;50.230;18.944;2023-05-16T14:53:33;98046.91;;;18.64;65.88
63535;BME280;55128;50.230;18.944;2023-05-16T14:58:33;98055.19;;;18.42;69.81
63535;BME280;55128;50.230;18.944;2023-05-16T15:03:35;98056.91;;;18.22;70.61
63535;BME280;55128;50.230;18.944;2023-05-16T15:08:36;98066.16;;;18.08;70.82
63535;BME280;55128;50.230;18.944;2023-05-16T15:13:37;98059.81;;;17.88;73.71
63535;BME280;55128;50.230;18.944;2023-05-16T15:18:38;98051.72;;;18.09;72.39
63535;BME280;55128;50.230;18.944;2023-05-16T15:23:39;98066.53;;;18.03;72.82
63535;BME280;55128;50.230;18.944;2023-05-16T15:28:41;98078.09;;;18.15;73.47
63535;BME280;55128;50.230;18.944;2023-05-16T15:33:41;98065.03;;;17.90;74.30
63535;BME280;55128;50.230;18.944;2023-05-16T15:38:42;98062.38;;;17.78;75.22
63535;BME280;55128;50.230;18.944;2023-05-16T15:43:47;98045.66;;;17.54;76.39
63535;BME280;55128;50.230;18.944;2023-05-16T15:48:48;98043.72;;;17.56;74.37
63535;BME280;55128;50.230;18.944;2023-05-16T15:53:48;98036.88;;;17.31;72.52
63535;BME280;55128;50.230;18.944;2023-05-16T15:58:48;98042.66;;;17.03;74.90
63535;BME280;55128;50.230;18.944;2023-05-16T16:03:49;98047.84;;;16.84;76.46
63535;BME280;55128;50.230;18.944;2023-05-16T16:08:50;98050.25;;;16.53;78.08
63535;BME280;55128;50.230;18.944;2023-05-16T16:13:51;98051.69;;;16.35;79.36
63535;BME280;55128;50.230;18.944;2023-05-16T16:18:52;98049.75;;;16.37;79.63
63535;BME280;55128;50.230;18.944;2023-05-16T16:23:52;98053.66;;;16.44;77.91
63535;BME280;55128;50.230;18.944;2023-05-16T16:28:52;98068.97;;;16.19;78.95
63535;BME280;55128;50.230;18.944;2023-05-16T16:33:53;98060.59;;;16.24;78.95
63535;BME280;55128;50.230;18.944;2023-05-16T16:38:53;98061.47;;;15.78;80.50
63535;BME280;55128;50.230;18.944;2023-05-16T16:43:54;98062.47;;;15.77;82.45
63535;BME280;55128;50.230;18.944;2023-05-16T16:48:54;98068.81;;;15.63;83.41
63535;BME280;55128;50.230;18.944;2023-05-16T16:53:55;98079.03;;;15.93;82.04
63535;BME280;55128;50.230;18.944;2023-05-16T16:58:57;98080.88;;;16.04;82.51
63535;BME280;55128;50.230;18.944;2023-05-16T17:03:57;98077.03;;;16.19;82.40
63535;BME280;55128;50.230;18.944;2023-05-16T17:08:58;98095.09;;;15.93;82.98
63535;BME280;55128;50.230;18.944;2023-05-16T17:14:05;98092.59;;;16.14;82.49
63535;BME280;55128;50.230;18.944;2023-05-16T17:19:07;98091.59;;;16.04;83.56
63535;BME280;55128;50.230;18.944;2023-05-16T17:24:08;98092.69;;;16.01;82.08
63535;BME280;55128;50.230;18.944;2023-05-16T17:29:08;98094.69;;;15.75;84.14
63535;BME280;55128;50.230;18.944;2023-05-16T17:34:09;98082.31;;;15.85;83.02
63535;BME280;55128;50.230;18.944;2023-05-16T17:39:09;98077.81;;;15.62;83.03
63535;BME280;55128;50.230;18.944;2023-05-16T17:44:10;98089.84;;;15.56;83.34
63535;BME280;55128;50.230;18.944;2023-05-16T17:49:10;98094.06;;;15.47;83.21
63535;BME280;55128;50.230;18.944;2023-05-16T17:54:11;98082.78;;;15.31;84.54
63535;BME280;55128;50.230;18.944;2023-05-16T17:59:12;98081.97;;;15.18;85.50
63535;BME280;55128;50.230;18.944;2023-05-16T18:04:12;98082.13;;;15.03;85.87
63535;BME280;55128;50.230;18.944;2023-05-16T18:09:13;98082.94;;;14.92;85.95
63535;BME280;55128;50.230;18.944;2023-05-16T18:14:14;98092.66;;;14.81;87.55
63535;BME280;55128;50.230;18.944;2023-05-16T18:19:14;98100.63;;;15.06;86.79
63535;BME280;55128;50.230;18.944;2023-05-16T18:24:18;98105.72;;;15.22;85.94
63535;BME280;55128;50.230;18.944;2023-05-16T18:29:19;98111.66;;;15.26;85.20
63535;BME280;55128;50.230;18.944;2023-05-16T18:34:20;98125.63;;;15.05;86.92
63535;BME280;55128;50.230;18.944;2023-05-16T18:39:27;98126.50;;;15.19;85.90
63535;BME280;55128;50.230;18.944;2023-05-16T18:44:29;98114.22;;;15.03;85.94
63535;BME280;55128;50.230;18.944;2023-05-16T18:49:29;98106.03;;;14.81;86.78
63535;BME280;55128;50.230;18.944;2023-05-16T18:54:32;98119.31;;;14.69;86.93
63535;BME280;55128;50.230;18.944;2023-05-16T18:59:33;98137.78;;;14.85;87.74
63535;BME280;55128;50.230;18.944;2023-05-16T19:04:34;98139.25;;;15.02;86.86
63535;BME280;55128;50.230;18.944;2023-05-16T19:09:34;98142.56;;;15.06;86.51
63535;BME280;55128;50.230;18.944;2023-05-16T19:14:35;98137.75;;;15.11;85.02
63535;BME280;55128;50.230;18.944;2023-05-16T19:19:35;98124.22;;;14.50;88.81
63535;BME280;55128;50.230;18.944;2023-05-16T19:24:38;98138.13;;;14.55;90.13
63535;BME280;55128;50.230;18.944;2023-05-16T19:29:39;98149.34;;;14.73;89.63
63535;BME280;55128;50.230;18.944;2023-05-16T19:34:39;98130.81;;;14.83;88.02
63535;BME280;55128;50.230;18.944;2023-05-16T19:39:40;98111.81;;;14.49;87.87
63535;BME280;55128;50.230;18.944;2023-05-16T19:44:40;98124.31;;;14.10;91.42
63535;BME280;55128;50.230;18.944;2023-05-16T19:49:41;98120.16;;;14.18;91.04
63535;BME280;55128;50.230;18.944;2023-05-16T19:54:42;98116.72;;;14.04;91.63
63535;BME280;55128;50.230;18.944;2023-05-16T19:59:42;98127.50;;;13.89;93.30
63535;BME280;55128;50.230;18.944;2023-05-16T20:04:43;98132.97;;;14.00;93.14
63535;BME280;55128;50.230;18.944;2023-05-16T20:09:43;98134.69;;;14.27;91.43
63535;BME280;55128;50.230;18.944;2023-05-16T20:14:43;98126.47;;;14.30;90.66
63535;BME280;55128;50.230;18.944;2023-05-16T20:19:44;98115.56;;;14.20;90.78
63535;BME280;55128;50.230;18.944;2023-05-16T20:24:45;98104.09;;;13.80;93.03
63535;BME280;55128;50.230;18.944;2023-05-16T20:29:46;98097.66;;;13.70;93.55
63535;BME280;55128;50.230;18.944;2023-05-16T20:34:48;98107.44;;;13.56;93.58
63535;BME280;55128;50.230;18.944;2023-05-16T20:39:48;98124.59;;;13.52;94.96
63535;BME280;55128;50.230;18.944;2023-05-16T20:44:49;98110.69;;;13.74;93.62
63535;BME280;55128;50.230;18.944;2023-05-16T20:49:49;98108.47;;;13.81;93.52
63535;BME280;55128;50.230;18.944;2023-05-16T20:54:50;98112.66;;;13.85;92.21
63535;BME280;55128;50.230;18.944;2023-05-16T20:59:50;98100.69;;;13.78;92.56
63535;BME280;55128;50.230;18.944;2023-05-16T21:04:50;98097.88;;;13.67;92.12
63535;BME280;55128;50.230;18.944;2023-05-16T21:09:51;98084.69;;;13.51;93.12
63535;BME280;55128;50.230;18.944;2023-05-16T21:14:51;98097.56;;;13.31;94.57
63535;BME280;55128;50.230;18.944;2023-05-16T21:19:51;98086.38;;;13.25;93.42
63535;BME280;55128;50.230;18.944;2023-05-16T21:24:52;98073.88;;;13.12;94.71
63535;BME280;55128;50.230;18.944;2023-05-16T21:29:52;98072.84;;;13.00;94.43
63535;BME280;55128;50.230;18.944;2023-05-16T21:34:52;98059.38;;;12.89;94.04
63535;BME280;55128;50.230;18.944;2023-05-16T21:39:53;98059.34;;;12.76;93.65
63535;BME280;55128;50.230;18.944;2023-05-16T21:44:53;98055.25;;;12.56;94.27
63535;BME280;55128;50.230;18.944;2023-05-16T21:49:54;98036.94;;;12.37;94.38
63535;BME280;55128;50.230;18.944;2023-05-16T21:54:54;98048.63;;;12.35;94.70
63535;BME280;55128;50.230;18.944;2023-05-16T21:59:55;98060.88;;;12.37;94.44
63535;BME280;55128;50.230;18.944;2023-05-16T22:04:55;98038.72;;;12.51;93.25
63535;BME280;55128;50.230;18.944;2023-05-16T22:09:57;98050.44;;;12.49;93.64
63535;BME280;55128;50.230;18.944;2023-05-16T22:14:57;98051.50;;;12.32;94.29
63535;BME280;55128;50.230;18.944;2023-05-16T22:19:58;98048.13;;;12.57;94.06
63535;BME280;55128;50.230;18.944;2023-05-16T22:24:58;98054.50;;;12.54;93.19
63535;BME280;55128;50.230;18.944;2023-05-16T22:29:58;98056.22;;;12.41;93.33
63535;BME280;55128;50.230;18.944;2023-05-16T22:34:59;98059.84;;;12.54;93.61
63535;BME280;55128;50.230;18.944;2023-05-16T22:39:59;98064.09;;;12.57;92.86
63535;BME280;55128;50.230;18.944;2023-05-16T22:44:59;98069.41;;;12.57;92.21
63535;BME280;55128;50.230;18.944;2023-05-16T22:50:00;98064.19;;;12.55;91.67
63535;BME280;55128;50.230;18.944;2023-05-16T22:55:00;98070.97;;;12.47;92.76
63535;BME280;55128;50.230;18.944;2023-05-16T23:00:02;98073.53;;;12.48;91.87
63535;BME280;55128;50.230;18.944;2023-05-16T23:05:06;98071.72;;;12.49;92.67
63535;BME280;55128;50.230;18.944;2023-05-16T23:10:07;98057.25;;;12.38;92.43
63535;BME280;55128;50.230;18.944;2023-05-16T23:15:07;98062.09;;;12.46;92.03
63535;BME280;55128;50.230;18.944;2023-05-16T23:20:09;98088.53;;;12.49;92.80
63535;BME280;55128;50.230;18.944;2023-05-16T23:25:09;98090.81;;;12.70;91.32
63535;BME280;55128;50.230;18.944;2023-05-16T23:30:10;98110.41;;;12.54;92.36
63535;BME280;55128;50.230;18.944;2023-05-16T23:35:10;98101.94;;;12.62;92.90
63535;BME280;55128;50.230;18.944;2023-05-16T23:40:11;98096.97;;;12.70;92.04
63535;BME280;55128;50.230;18.944;2023-05-16T23:45:11;98103.72;;;12.90;92.00
63535;BME280;55128;50.230;18.944;2023-05-16T23:50:12;98108.88;;;12.79;91.33
63535;BME280;55128;50.230;18.944;2023-05-16T23:55:12;98104.78;;;12.73;90.69
